sensor_id;sensor_type;location;lat;lon;timestamp;pressure;altitude;pressure_sealevel;temperature;humidity
18790;BME280;9523;42.650;23.386;2023-03-20T00:01:14;94940.94;;;6.07;81.31
18790;BME280;9523;42.650;23.386;2023-03-20T00:03:42;94941.47;;;6.09;81.19
18790;BME280;9523;42.650;23.386;2023-03-20T00:06:14;94925.97;;;6.03;82.52
18790;BME280;9523;42.650;23.386;2023-03-20T00:08:42;94930.44;;;6.02;81.05
18790;BME280;9523;42.650;23.386;2023-03-20T00:11:24;94922.53;;;5.97;84.10
18790;BME280;9523;42.650;23.386;2023-03-20T00:13:54;94925.13;;;5.92;85.21
18790;BME280;9523;42.650;23.386;2023-03-20T00:16:23;94924.22;;;5.82;83.05
18790;BME280;9523;42.650;23.386;2023-03-20T00:18:51;94931.53;;;5.80;85.05
18790;BME280;9523;42.650;23.386;2023-03-20T00:21:20;94929.59;;;5.65;83.17
18790;BME280;9523;42.650;23.386;2023-03-20T00:23:47;94923.47;;;5.54;83.52
18790;BME280;9523;42.650;23.386;2023-03-20T00:26:17;94922.19;;;5.57;83.33
18790;BME280;9523;42.650;23.386;2023-03-20T00:28:45;94919.53;;;5.52;83.63
18790;BME280;9523;42.650;23.386;2023-03-20T00:31:21;94909.56;;;5.49;83.99
18790;BME280;9523;42.650;23.386;2023-03-20T00:33:50;94904.78;;;5.41;84.68
18790;BME280;9523;42.650;23.386;2023-03-20T00:36:17;94905.81;;;5.40;84.57
18790;BME280;9523;42.650;23.386;2023-03-20T00:38:44;94914.09;;;5.32;85.20
18790;BME280;9523;42.650;23.386;2023-03-20T00:41:24;94903.63;;;5.32;85.15
18790;BME280;9523;42.650;23.386;2023-03-20T00:43:53;94904.66;;;5.31;84.84
18790;BME280;9523;42.650;23.386;2023-03-20T00:46:21;94899.72;;;5.34;84.83
18790;BME280;9523;42.650;23.386;2023-03-20T00:48:49;94901.06;;;5.37;84.16
18790;BME280;9523;42.650;23.386;2023-03-20T00:51:16;94906.88;;;5.44;83.02
18790;BME280;9523;42.650;23.386;2023-03-20T00:53:43;94901.66;;;5.44;83.50
18790;BME280;9523;42.650;23.386;2023-03-20T00:56:27;94900.63;;;5.45;82.63
18790;BME280;9523;42.650;23.386;2023-03-20T00:58:56;94914.34;;;5.57;81.32
18790;BME280;9523;42.650;23.386;2023-03-20T01:01:23;94898.06;;;5.55;80.43
18790;BME280;9523;42.650;23.386;2023-03-20T01:03:50;94902.34;;;5.61;79.20
18790;BME280;9523;42.650;23.386;2023-03-20T01:06:17;94891.34;;;5.64;78.37
18790;BME280;9523;42.650;23.386;2023-03-20T01:08:44;94884.31;;;5.69;77.26
18790;BME280;9523;42.650;23.386;2023-03-20T01:11:13;94885.84;;;5.60;76.83
18790;BME280;9523;42.650;23.386;2023-03-20T01:13:43;94897.03;;;5.56;77.38
18790;BME280;9523;42.650;23.386;2023-03-20T01:16:18;94890.19;;;5.50;77.75
18790;BME280;9523;42.650;23.386;2023-03-20T01:18:46;94877.25;;;5.38;77.96
18790;BME280;9523;42.650;23.386;2023-03-20T01:21:13;94881.91;;;5.31;78.78
18790;BME280;9523;42.650;23.386;2023-03-20T01:23:40;94884.81;;;5.35;79.47
18790;BME280;9523;42.650;23.386;2023-03-20T01:26:19;94873.31;;;5.36;81.00
18790;BME280;9523;42.650;23.386;2023-03-20T01:28:49;94876.44;;;5.33;81.18
18790;BME280;9523;42.650;23.386;2023-03-20T01:31:16;94885.38;;;5.37;81.48
18790;BME280;9523;42.650;23.386;2023-03-20T01:33:43;94890.19;;;5.23;80.73
18790;BME280;9523;42.650;23.386;2023-03-20T01:36:12;94880.69;;;5.12;81.78
18790;BME280;9523;42.650;23.386;2023-03-20T01:38:40;94890.41;;;5.16;82.54
18790;BME280;9523;42.650;23.386;2023-03-20T01:41:11;94890.41;;;5.16;83.36
18790;BME280;9523;42.650;23.386;2023-03-20T01:43:39;94892.44;;;5.09;83.74
18790;BME280;9523;42.650;23.386;2023-03-20T01:46:16;94891.81;;;5.02;84.61
18790;BME280;9523;42.650;23.386;2023-03-20T01:48:59;94893.84;;;4.95;84.69
18790;BME280;9523;42.650;23.386;2023-03-20T01:51:27;94893.25;;;4.88;85.53
18790;BME280;9523;42.650;23.386;2023-03-20T01:54:00;94896.06;;;4.82;86.79
18790;BME280;9523;42.650;23.386;2023-03-20T01:56:29;94897.09;;;4.81;86.97
18790;BME280;9523;42.650;23.386;2023-03-20T01:59:01;94893.50;;;4.65;87.94
18790;BME280;9523;42.650;23.386;2023-03-20T02:01:32;94893.16;;;4.56;89.30
18790;BME280;9523;42.650;23.386;2023-03-20T02:04:01;94891.13;;;4.42;90.38
18790;BME280;9523;42.650;23.386;2023-03-20T02:06:28;94886.38;;;4.39;90.87
18790;BME280;9523;42.650;23.386;2023-03-20T02:08:55;94839.00;;;4.08;91.39
18790;BME280;9523;42.650;23.386;2023-03-20T02:11:23;94879.63;;;4.43;91.71
18790;BME280;9523;42.650;23.386;2023-03-20T02:14:01;94879.44;;;4.28;92.33
18790;BME280;9523;42.650;23.386;2023-03-20T02:16:28;94885.53;;;4.33;92.67
18790;BME280;9523;42.650;23.386;2023-03-20T02:18:56;94878.50;;;4.34;92.27
18790;BME280;9523;42.650;23.386;2023-03-20T02:25:00;94880.00;;;4.30;92.35
18790;BME280;9523;42.650;23.386;2023-03-20T02:27:44;94888.69;;;4.35;92.73
18790;BME280;9523;42.650;23.386;2023-03-20T02:30:37;94886.88;;;4.36;92.09
18790;BME280;9523;42.650;23.386;2023-03-20T02:33:48;94890.56;;;4.40;91.03
18790;BME280;9523;42.650;23.386;2023-03-20T02:36:57;94893.19;;;4.40;90.41
18790;BME280;9523;42.650;23.386;2023-03-20T02:39:45;94888.03;;;4.45;90.78
18790;BME280;9523;42.650;23.386;2023-03-20T02:42:22;94887.97;;;4.40;89.65
18790;BME280;9523;42.650;23.386;2023-03-20T02:45:01;94892.16;;;4.41;90.99
18790;BME280;9523;42.650;23.386;2023-03-20T02:47:36;94881.56;;;4.31;90.95
18790;BME280;9523;42.650;23.386;2023-03-20T02:50:11;94883.75;;;4.39;92.76
18790;BME280;9523;42.650;23.386;2023-03-20T02:52:45;94881.09;;;4.34;91.17
18790;BME280;9523;42.650;23.386;2023-03-20T02:55:17;94879.03;;;4.36;90.82
18790;BME280;9523;42.650;23.386;2023-03-20T02:57:52;94865.84;;;4.25;91.68
18790;BME280;9523;42.650;23.386;2023-03-20T03:00:27;94874.09;;;4.17;92.22
18790;BME280;9523;42.650;23.386;2023-03-20T03:03:05;94879.56;;;4.16;94.14
18790;BME280;9523;42.650;23.386;2023-03-20T03:05:37;94857.88;;;4.15;95.11
18790;BME280;9523;42.650;23.386;2023-03-20T03:08:08;94865.41;;;4.12;94.51
18790;BME280;9523;42.650;23.386;2023-03-20T03:10:43;94863.31;;;3.92;95.15
18790;BME280;9523;42.650;23.386;2023-03-20T03:13:14;94866.38;;;4.06;97.18
18790;BME280;9523;42.650;23.386;2023-03-20T03:15:45;94844.81;;;3.77;96.50
18790;BME280;9523;42.650;23.386;2023-03-20T03:18:15;94872.25;;;3.96;99.49
18790;BME280;9523;42.650;23.386;2023-03-20T03:20:44;94872.78;;;3.98;98.35
18790;BME280;9523;42.650;23.386;2023-03-20T03:23:20;94867.09;;;4.01;97.71
18790;BME280;9523;42.650;23.386;2023-03-20T03:25:49;94867.09;;;4.01;97.65
18790;BME280;9523;42.650;23.386;2023-03-20T03:28:22;94849.63;;;3.85;98.41
18790;BME280;9523;42.650;23.386;2023-03-20T03:30:53;94866.41;;;3.89;98.54
18790;BME280;9523;42.650;23.386;2023-03-20T03:33:23;94874.84;;;3.96;98.50
18790;BME280;9523;42.650;23.386;2023-03-20T03:35:53;94872.09;;;3.86;98.32
18790;BME280;9523;42.650;23.386;2023-03-20T03:38:29;94876.28;;;3.87;99.75
18790;BME280;9523;42.650;23.386;2023-03-20T03:41:07;94879.38;;;3.84;100.00
18790;BME280;9523;42.650;23.386;2023-03-20T03:43:41;94876.13;;;3.77;100.00
18790;BME280;9523;42.650;23.386;2023-03-20T03:46:11;94876.13;;;3.77;100.00
18790;BME280;9523;42.650;23.386;2023-03-20T03:48:44;94879.47;;;3.72;100.00
18790;BME280;9523;42.650;23.386;2023-03-20T03:51:15;94876.84;;;3.72;100.00
18790;BME280;9523;42.650;23.386;2023-03-20T03:53:46;94876.13;;;3.77;100.00
18790;BME280;9523;42.650;23.386;2023-03-20T03:56:19;94882.16;;;3.77;100.00
18790;BME280;9523;42.650;23.386;2023-03-20T03:58:52;94861.91;;;3.68;100.00
18790;BME280;9523;42.650;23.386;2023-03-20T04:01:22;94878.75;;;3.77;100.00
18790;BME280;9523;42.650;23.386;2023-03-20T04:03:53;94849.91;;;3.50;100.00
18790;BME280;9523;42.650;23.386;2023-03-20T04:06:22;94872.97;;;3.75;99.74
18790;BME280;9523;42.650;23.386;2023-03-20T04:08:51;94867.75;;;3.75;98.39
18790;BME280;9523;42.650;23.386;2023-03-20T04:11:21;94863.88;;;3.77;98.27
18790;BME280;9523;42.650;23.386;2023-03-20T04:13:50;94861.03;;;3.79;98.06
18790;BME280;9523;42.650;23.386;2023-03-20T04:16:19;94861.50;;;3.76;98.08
18790;BME280;9523;42.650;23.386;2023-03-20T04:18:46;94857.72;;;3.67;99.04
18790;BME280;9523;42.650;23.386;2023-03-20T04:21:13;94862.88;;;3.62;100.00
18790;BME280;9523;42.650;23.386;2023-03-20T04:23:44;94855.44;;;3.54;100.00
18790;BME280;9523;42.650;23.386;2023-03-20T04:26:11;94861.69;;;3.53;100.00
18790;BME280;9523;42.650;23.386;2023-03-20T04:28:39;94856.84;;;3.45;100.00
18790;BME280;9523;42.650;23.386;2023-03-20T04:31:06;94851.47;;;3.35;100.00
18790;BME280;9523;42.650;23.386;2023-03-20T04:33:33;94857.72;;;3.34;100.00
18790;BME280;9523;42.650;23.386;2023-03-20T04:36:00;94849.09;;;3.16;100.00
18790;BME280;9523;42.650;23.386;2023-03-20T04:38:27;94856.13;;;3.16;100.00
18790;BME280;9523;42.650;23.386;2023-03-20T04:40:53;94830.03;;;2.99;100.00
18790;BME280;9523;42.650;23.386;2023-03-20T04:43:21;94854.16;;;3.06;100.00
18790;BME280;9523;42.650;23.386;2023-03-20T04:45:49;94861.56;;;2.98;100.00
18790;BME280;9523;42.650;23.386;2023-03-20T04:48:16;94866.78;;;2.98;100.00
18790;BME280;9523;42.650;23.386;2023-03-20T04:50:42;94872.41;;;3.06;100.00
18790;BME280;9523;42.650;23.386;2023-03-20T04:53:13;94875.44;;;3.03;100.00
18790;BME280;9523;42.650;23.386;2023-03-20T04:55:40;94876.34;;;3.09;100.00
18790;BME280;9523;42.650;23.386;2023-03-20T04:58:07;94885.28;;;3.13;100.00
18790;BME280;9523;42.650;23.386;2023-03-20T05:00:37;94876.56;;;3.07;100.00
18790;BME280;9523;42.650;23.386;2023-03-20T05:03:24;94891.03;;;3.15;100.00
18790;BME280;9523;42.650;23.386;2023-03-20T05:05:52;94882.06;;;3.22;100.00
18790;BME280;9523;42.650;23.386;2023-03-20T05:08:19;94895.75;;;3.29;100.00
18790;BME280;9523;42.650;23.386;2023-03-20T05:10:45;94900.47;;;3.33;100.00
18790;BME280;9523;42.650;23.386;2023-03-20T05:13:12;94892.66;;;3.33;100.00
18790;BME280;9523;42.650;23.386;2023-03-20T05:15:39;94893.69;;;3.48;100.00
18790;BME280;9523;42.650;23.386;2023-03-20T05:18:06;94893.94;;;3.63;100.00
18790;BME280;9523;42.650;23.386;2023-03-20T05:20:35;94896.44;;;3.75;100.00
18790;BME280;9523;42.650;23.386;2023-03-20T05:23:02;94891.88;;;3.82;100.00
18790;BME280;9523;42.650;23.386;2023-03-20T05:25:29;94901.50;;;3.98;100.00
18790;BME280;9523;42.650;23.386;2023-03-20T05:27:56;94906.69;;;4.15;99.86
18790;BME280;9523;42.650;23.386;2023-03-20T05:30:23;94898.84;;;4.32;98.78
18790;BME280;9523;42.650;23.386;2023-03-20T05:32:50;94906.47;;;4.38;98.38
18790;BME280;9523;42.650;23.386;2023-03-20T05:35:17;94906.56;;;4.43;97.72
18790;BME280;9523;42.650;23.386;2023-03-20T05:37:46;94901.34;;;4.43;97.59
18790;BME280;9523;42.650;23.386;2023-03-20T05:40:14;94911.13;;;4.53;97.10
18790;BME280;9523;42.650;23.386;2023-03-20T05:42:41;94910.25;;;4.47;97.64
18790;BME280;9523;42.650;23.386;2023-03-20T05:45:09;94911.00;;;4.43;99.83
18790;BME280;9523;42.650;23.386;2023-03-20T05:47:36;94906.31;;;4.45;99.69
18790;BME280;9523;42.650;23.386;2023-03-20T05:50:04;94905.31;;;4.46;100.00
18790;BME280;9523;42.650;23.386;2023-03-20T05:52:31;94913.84;;;4.41;100.00
18790;BME280;9523;42.650;23.386;2023-03-20T05:54:59;94906.25;;;4.40;100.00
18790;BME280;9523;42.650;23.386;2023-03-20T05:57:26;94919.75;;;4.75;100.00
18790;BME280;9523;42.650;23.386;2023-03-20T05:59:53;94919.69;;;4.92;100.00
18790;BME280;9523;42.650;23.386;2023-03-20T06:02:20;94913.72;;;4.96;100.00
18790;BME280;9523;42.650;23.386;2023-03-20T06:04:46;94912.31;;;5.10;99.20
18790;BME280;9523;42.650;23.386;2023-03-20T06:07:14;94900.28;;;5.09;97.44
18790;BME280;9523;42.650;23.386;2023-03-20T06:09:41;94917.25;;;5.34;96.22
18790;BME280;9523;42.650;23.386;2023-03-20T06:12:09;94909.44;;;5.39;95.16
18790;BME280;9523;42.650;23.386;2023-03-20T06:14:37;94912.13;;;5.44;93.52
18790;BME280;9523;42.650;23.386;2023-03-20T06:17:04;94916.94;;;5.57;93.36
18790;BME280;9523;42.650;23.386;2023-03-20T06:19:30;94912.28;;;5.64;92.61
18790;BME280;9523;42.650;23.386;2023-03-20T06:21:57;94914.75;;;5.76;93.41
18790;BME280;9523;42.650;23.386;2023-03-20T06:24:24;94907.22;;;5.84;91.42
18790;BME280;9523;42.650;23.386;2023-03-20T06:26:51;94914.03;;;5.85;90.20
18790;BME280;9523;42.650;23.386;2023-03-20T06:29:19;94918.88;;;5.98;88.86
18790;BME280;9523;42.650;23.386;2023-03-20T06:31:46;94921.25;;;6.00;88.66
18790;BME280;9523;42.650;23.386;2023-03-20T06:34:13;94916.28;;;6.03;87.08
18790;BME280;9523;42.650;23.386;2023-03-20T06:36:40;94917.91;;;6.09;87.16
18790;BME280;9523;42.650;23.386;2023-03-20T06:39:07;94917.22;;;6.24;86.20
18790;BME280;9523;42.650;23.386;2023-03-20T06:41:34;94918.06;;;6.35;86.06
18790;BME280;9523;42.650;23.386;2023-03-20T06:44:01;94921.28;;;6.47;85.38
18790;BME280;9523;42.650;23.386;2023-03-20T06:46:30;94928.38;;;6.51;84.12
18790;BME280;9523;42.650;23.386;2023-03-20T06:48:58;94915.00;;;6.53;83.92
18790;BME280;9523;42.650;23.386;2023-03-20T06:51:25;94917.19;;;6.71;81.21
18790;BME280;9523;42.650;23.386;2023-03-20T06:53:52;94898.59;;;6.73;80.08
18790;BME280;9523;42.650;23.386;2023-03-20T06:56:19;94854.16;;;6.41;80.09
18790;BME280;9523;42.650;23.386;2023-03-20T06:58:46;94911.31;;;7.11;78.67
18790;BME280;9523;42.650;23.386;2023-03-20T07:01:14;94908.97;;;7.25;78.60
18790;BME280;9523;42.650;23.386;2023-03-20T07:03:45;94906.91;;;7.42;77.30
18790;BME280;9523;42.650;23.386;2023-03-20T07:06:13;94902.22;;;7.44;77.59
18790;BME280;9523;42.650;23.386;2023-03-20T07:08:39;94901.16;;;7.55;73.42
18790;BME280;9523;42.650;23.386;2023-03-20T07:11:06;94902.75;;;7.66;72.74
18790;BME280;9523;42.650;23.386;2023-03-20T07:13:34;94902.22;;;7.79;71.23
18790;BME280;9523;42.650;23.386;2023-03-20T07:16:02;94900.38;;;7.95;70.68
18790;BME280;9523;42.650;23.386;2023-03-20T07:18:29;94900.91;;;8.07;69.61
18790;BME280;9523;42.650;23.386;2023-03-20T07:20:59;94905.88;;;8.29;67.95
18790;BME280;9523;42.650;23.386;2023-03-20T07:23:27;94907.19;;;8.36;67.47
18790;BME280;9523;42.650;23.386;2023-03-20T07:25:55;94893.00;;;8.42;66.90
18790;BME280;9523;42.650;23.386;2023-03-20T07:28:22;94894.75;;;8.67;66.81
18790;BME280;9523;42.650;23.386;2023-03-20T07:30:49;94894.16;;;8.85;65.47
18790;BME280;9523;42.650;23.386;2023-03-20T07:33:16;94884.91;;;8.93;65.58
18790;BME280;9523;42.650;23.386;2023-03-20T07:35:43;94891.41;;;9.11;64.40
18790;BME280;9523;42.650;23.386;2023-03-20T07:38:12;94897.66;;;9.25;63.69
18790;BME280;9523;42.650;23.386;2023-03-20T07:40:38;94896.56;;;9.31;63.37
18790;BME280;9523;42.650;23.386;2023-03-20T07:43:05;94895.44;;;9.42;63.30
18790;BME280;9523;42.650;23.386;2023-03-20T07:45:32;94898.78;;;9.53;62.40
18790;BME280;9523;42.650;23.386;2023-03-20T07:47:59;94893.25;;;9.54;62.98
18790;BME280;9523;42.650;23.386;2023-03-20T07:50:26;94896.38;;;9.61;62.68
18790;BME280;9523;42.650;23.386;2023-03-20T07:52:53;94877.22;;;9.51;62.51
18790;BME280;9523;42.650;23.386;2023-03-20T07:55:21;94904.41;;;9.80;62.82
18790;BME280;9523;42.650;23.386;2023-03-20T07:57:48;94900.44;;;9.82;62.58
18790;BME280;9523;42.650;23.386;2023-03-20T08:00:16;94893.56;;;9.86;62.74
18790;BME280;9523;42.650;23.386;2023-03-20T08:02:43;94899.88;;;9.85;63.13
18790;BME280;9523;42.650;23.386;2023-03-20T08:05:10;94911.66;;;9.98;62.77
18790;BME280;9523;42.650;23.386;2023-03-20T08:07:37;94906.88;;;10.00;63.09
18790;BME280;9523;42.650;23.386;2023-03-20T08:10:04;94902.84;;;10.08;62.45
18790;BME280;9523;42.650;23.386;2023-03-20T08:12:34;94895.47;;;10.15;63.00
18790;BME280;9523;42.650;23.386;2023-03-20T08:15:01;94897.28;;;10.14;62.62
18790;BME280;9523;42.650;23.386;2023-03-20T08:17:28;94900.84;;;10.28;61.72
18790;BME280;9523;42.650;23.386;2023-03-20T08:19:55;94898.97;;;10.34;61.38
18790;BME280;9523;42.650;23.386;2023-03-20T08:22:22;94888.34;;;10.39;60.47
18790;BME280;9523;42.650;23.386;2023-03-20T08:24:52;94897.69;;;10.55;60.20
18790;BME280;9523;42.650;23.386;2023-03-20T08:27:19;94901.28;;;10.64;60.26
18790;BME280;9523;42.650;23.386;2023-03-20T08:29:47;94901.69;;;10.76;59.38
18790;BME280;9523;42.650;23.386;2023-03-20T08:32:14;94906.84;;;10.87;59.32
18790;BME280;9523;42.650;23.386;2023-03-20T08:34:41;94909.31;;;11.02;59.25
18790;BME280;9523;42.650;23.386;2023-03-20T08:37:08;94909.06;;;11.41;57.46
18790;BME280;9523;42.650;23.386;2023-03-20T08:39:36;94912.47;;;12.16;55.15
18790;BME280;9523;42.650;23.386;2023-03-20T08:42:04;94895.91;;;12.97;52.50
18790;BME280;9523;42.650;23.386;2023-03-20T08:44:30;94907.16;;;13.80;50.09
18790;BME280;9523;42.650;23.386;2023-03-20T08:46:59;94917.03;;;14.32;48.04
18790;BME280;9523;42.650;23.386;2023-03-20T08:49:26;94884.38;;;14.93;46.63
18790;BME280;9523;42.650;23.386;2023-03-20T08:51:53;94905.69;;;15.76;44.38
18790;BME280;9523;42.650;23.386;2023-03-20T08:54:20;94893.78;;;16.16;43.40
18790;BME280;9523;42.650;23.386;2023-03-20T08:56:47;94890.66;;;16.78;41.40
18790;BME280;9523;42.650;23.386;2023-03-20T08:59:13;94893.50;;;17.11;40.40
18790;BME280;9523;42.650;23.386;2023-03-20T09:01:40;94887.13;;;17.53;39.21
18790;BME280;9523;42.650;23.386;2023-03-20T09:04:13;94882.94;;;17.73;38.67
18790;BME280;9523;42.650;23.386;2023-03-20T09:06:40;94880.47;;;18.21;37.95
18790;BME280;9523;42.650;23.386;2023-03-20T09:09:07;94886.22;;;18.89;36.97
18790;BME280;9523;42.650;23.386;2023-03-20T09:11:35;94891.31;;;18.70;36.73
18790;BME280;9523;42.650;23.386;2023-03-20T09:14:02;94875.31;;;19.31;36.03
18790;BME280;9523;42.650;23.386;2023-03-20T09:16:29;94871.97;;;19.21;35.63
18790;BME280;9523;42.650;23.386;2023-03-20T09:18:56;94878.94;;;19.75;34.61
18790;BME280;9523;42.650;23.386;2023-03-20T09:21:24;94871.78;;;19.79;34.61
18790;BME280;9523;42.650;23.386;2023-03-20T09:23:51;94855.66;;;19.63;33.93
18790;BME280;9523;42.650;23.386;2023-03-20T09:26:18;94867.94;;;19.52;34.04
18790;BME280;9523;42.650;23.386;2023-03-20T09:28:45;94863.09;;;20.09;33.46
18790;BME280;9523;42.650;23.386;2023-03-20T09:31:11;94861.91;;;20.50;32.82
18790;BME280;9523;42.650;23.386;2023-03-20T09:33:39;94867.84;;;19.88;34.44
18790;BME280;9523;42.650;23.386;2023-03-20T09:36:07;94855.00;;;20.22;33.55
18790;BME280;9523;42.650;23.386;2023-03-20T09:38:37;94861.91;;;20.23;32.59
18790;BME280;9523;42.650;23.386;2023-03-20T09:41:12;94836.06;;;20.14;33.05
18790;BME280;9523;42.650;23.386;2023-03-20T09:43:53;94858.47;;;20.50;32.90
18790;BME280;9523;42.650;23.386;2023-03-20T09:46:31;94841.78;;;20.41;33.05
18790;BME280;9523;42.650;23.386;2023-03-20T09:49:11;94812.22;;;20.69;32.09
18790;BME280;9523;42.650;23.386;2023-03-20T09:51:43;94832.94;;;21.19;31.22
18790;BME280;9523;42.650;23.386;2023-03-20T09:54:20;94819.50;;;21.88;30.68
18790;BME280;9523;42.650;23.386;2023-03-20T09:56:48;94810.81;;;21.95;30.51
18790;BME280;9523;42.650;23.386;2023-03-20T09:59:17;94817.59;;;22.50;29.98
18790;BME280;9523;42.650;23.386;2023-03-20T10:01:48;94802.03;;;21.98;31.13
18790;BME280;9523;42.650;23.386;2023-03-20T10:04:15;94808.66;;;22.88;29.52
18790;BME280;9523;42.650;23.386;2023-03-20T10:06:44;94804.94;;;22.96;29.22
18790;BME280;9523;42.650;23.386;2023-03-20T10:09:16;94800.09;;;22.37;29.54
18790;BME280;9523;42.650;23.386;2023-03-20T10:11:59;94781.16;;;22.53;29.91
18790;BME280;9523;42.650;23.386;2023-03-20T10:14:34;94783.03;;;21.68;30.25
18790;BME280;9523;42.650;23.386;2023-03-20T10:17:13;94779.94;;;20.96;31.05
18790;BME280;9523;42.650;23.386;2023-03-20T10:19:48;94769.31;;;20.84;31.20
18790;BME280;9523;42.650;23.386;2023-03-20T10:22:21;94774.25;;;21.33;31.13
18790;BME280;9523;42.650;23.386;2023-03-20T10:24:55;94776.34;;;21.24;31.06
18790;BME280;9523;42.650;23.386;2023-03-20T10:27:28;94771.44;;;21.64;30.08
18790;BME280;9523;42.650;23.386;2023-03-20T10:30:07;94762.34;;;20.99;30.77
18790;BME280;9523;42.650;23.386;2023-03-20T10:32:45;94763.31;;;21.61;29.81
18790;BME280;9523;42.650;23.386;2023-03-20T10:35:20;94769.59;;;21.68;30.68
18790;BME280;9523;42.650;23.386;2023-03-20T10:38:01;94765.31;;;22.25;30.06
18790;BME280;9523;42.650;23.386;2023-03-20T10:40:36;94761.06;;;22.46;29.32
18790;BME280;9523;42.650;23.386;2023-03-20T10:43:11;94764.00;;;22.38;29.70
18790;BME280;9523;42.650;23.386;2023-03-20T10:45:42;94752.69;;;22.06;29.13
18790;BME280;9523;42.650;23.386;2023-03-20T10:48:16;94750.56;;;22.38;28.90
18790;BME280;9523;42.650;23.386;2023-03-20T10:50:48;94750.47;;;22.76;28.92
18790;BME280;9523;42.650;23.386;2023-03-20T10:53:26;94741.03;;;22.89;29.21
18790;BME280;9523;42.650;23.386;2023-03-20T10:55:58;94729.06;;;23.73;28.00
18790;BME280;9523;42.650;23.386;2023-03-20T10:58:29;94735.59;;;24.09;26.63
18790;BME280;9523;42.650;23.386;2023-03-20T11:00:57;94729.66;;;24.26;26.86
18790;BME280;9523;42.650;23.386;2023-03-20T11:03:26;94732.25;;;24.59;25.66
18790;BME280;9523;42.650;23.386;2023-03-20T11:05:58;94727.31;;;24.68;25.37
18790;BME280;9523;42.650;23.386;2023-03-20T11:08:30;94716.72;;;24.93;25.52
18790;BME280;9523;42.650;23.386;2023-03-20T11:11:02;94705.78;;;25.37;24.99
18790;BME280;9523;42.650;23.386;2023-03-20T11:13:32;94705.91;;;25.65;24.89
18790;BME280;9523;42.650;23.386;2023-03-20T11:16:15;94696.25;;;25.57;24.18
18790;BME280;9523;42.650;23.386;2023-03-20T11:18:43;94699.91;;;25.21;25.18
18790;BME280;9523;42.650;23.386;2023-03-20T11:21:16;94692.78;;;25.64;24.56
18790;BME280;9523;42.650;23.386;2023-03-20T11:23:44;94698.22;;;25.71;23.72
18790;BME280;9523;42.650;23.386;2023-03-20T11:26:13;94676.56;;;25.64;23.79
18790;BME280;9523;42.650;23.386;2023-03-20T11:28:46;94684.44;;;26.11;23.22
18790;BME280;9523;42.650;23.386;2023-03-20T11:31:16;94685.16;;;25.91;23.08
18790;BME280;9523;42.650;23.386;2023-03-20T11:33:46;94683.69;;;26.25;23.58
18790;BME280;9523;42.650;23.386;2023-03-20T11:36:22;94674.81;;;26.42;22.88
18790;BME280;9523;42.650;23.386;2023-03-20T11:38:50;94655.06;;;26.17;23.41
18790;BME280;9523;42.650;23.386;2023-03-20T11:41:22;94669.00;;;26.26;23.41
18790;BME280;9523;42.650;23.386;2023-03-20T11:43:50;94666.66;;;26.60;22.41
18790;BME280;9523;42.650;23.386;2023-03-20T11:46:19;94660.47;;;26.03;23.56
18790;BME280;9523;42.650;23.386;2023-03-20T11:49:01;94648.91;;;26.34;23.25
18790;BME280;9523;42.650;23.386;2023-03-20T11:51:28;94640.75;;;26.87;21.78
18790;BME280;9523;42.650;23.386;2023-03-20T11:53:59;94644.94;;;27.13;21.67
18790;BME280;9523;42.650;23.386;2023-03-20T11:56:29;94638.03;;;26.94;21.85
18790;BME280;9523;42.650;23.386;2023-03-20T11:59:00;94638.03;;;26.94;21.78
18790;BME280;9523;42.650;23.386;2023-03-20T12:01:37;94631.03;;;27.04;21.70
18790;BME280;9523;42.650;23.386;2023-03-20T12:04:11;94633.72;;;27.07;21.98
18790;BME280;9523;42.650;23.386;2023-03-20T12:06:51;94620.94;;;27.22;20.83
18790;BME280;9523;42.650;23.386;2023-03-20T12:09:29;94617.75;;;27.41;21.18
18790;BME280;9523;42.650;23.386;2023-03-20T12:12:01;94613.13;;;27.38;20.81
18790;BME280;9523;42.650;23.386;2023-03-20T12:14:39;94616.16;;;27.44;21.76
18790;BME280;9523;42.650;23.386;2023-03-20T12:17:25;94608.00;;;27.62;21.84
18790;BME280;9523;42.650;23.386;2023-03-20T12:19:56;94609.19;;;27.53;20.43
18790;BME280;9523;42.650;23.386;2023-03-20T12:22:27;94589.81;;;28.17;19.43
18790;BME280;9523;42.650;23.386;2023-03-20T12:25:00;94601.44;;;28.59;19.94
18790;BME280;9523;42.650;23.386;2023-03-20T12:27:35;94610.94;;;28.40;19.87
18790;BME280;9523;42.650;23.386;2023-03-20T12:30:09;94592.59;;;28.07;19.19
18790;BME280;9523;42.650;23.386;2023-03-20T12:32:41;94594.91;;;27.49;19.91
18790;BME280;9523;42.650;23.386;2023-03-20T12:35:16;94580.31;;;28.39;19.03
18790;BME280;9523;42.650;23.386;2023-03-20T12:37:44;94584.69;;;28.71;19.11
18790;BME280;9523;42.650;23.386;2023-03-20T12:40:15;94591.78;;;28.58;20.00
18790;BME280;9523;42.650;23.386;2023-03-20T12:42:52;94586.22;;;28.72;18.67
18790;BME280;9523;42.650;23.386;2023-03-20T12:45:20;94580.84;;;28.65;18.93
18790;BME280;9523;42.650;23.386;2023-03-20T12:48:15;94577.41;;;28.61;19.72
18790;BME280;9523;42.650;23.386;2023-03-20T12:50:55;94576.31;;;28.51;18.87
18790;BME280;9523;42.650;23.386;2023-03-20T12:53:33;94566.69;;;28.43;18.67
18790;BME280;9523;42.650;23.386;2023-03-20T12:56:16;94561.81;;;28.27;19.18
18790;BME280;9523;42.650;23.386;2023-03-20T12:58:55;94559.16;;;28.20;19.54
18790;BME280;9523;42.650;23.386;2023-03-20T13:01:28;94556.28;;;28.41;19.14
18790;BME280;9523;42.650;23.386;2023-03-20T13:04:04;94555.66;;;28.23;19.06
18790;BME280;9523;42.650;23.386;2023-03-20T13:06:45;94533.31;;;28.50;19.02
18790;BME280;9523;42.650;23.386;2023-03-20T13:09:41;94539.69;;;28.32;18.63
18790;BME280;9523;42.650;23.386;2023-03-20T13:12:21;94546.97;;;28.42;18.66
18790;BME280;9523;42.650;23.386;2023-03-20T13:15:00;94546.31;;;28.28;18.74
18790;BME280;9523;42.650;23.386;2023-03-20T13:17:35;94551.34;;;28.29;19.08
18790;BME280;9523;42.650;23.386;2023-03-20T13:20:19;94533.50;;;28.28;18.31
18790;BME280;9523;42.650;23.386;2023-03-20T13:22:55;94531.16;;;28.34;18.22
18790;BME280;9523;42.650;23.386;2023-03-20T13:25:35;94528.97;;;28.15;18.26
18790;BME280;9523;42.650;23.386;2023-03-20T13:28:12;94524.25;;;27.78;19.15